sensor_id;sensor_type;location;lat;lon;timestamp;P1;durP1;ratioP1;P2;durP2;ratioP2
72205;SDS011;60111;48.286;7.812;2024-01-16T00:00:27;23.67;;;12.57;;
72205;SDS011;60111;48.286;7.812;2024-01-16T00:03:00;21.37;;;11.00;;
72205;SDS011;60111;48.286;7.812;2024-01-16T00:05:33;20.87;;;10.70;;
72205;SDS011;60111;48.286;7.812;2024-01-16T00:08:06;21.53;;;12.23;;
72205;SDS011;60111;48.286;7.812;2024-01-16T00:10:38;19.92;;;10.88;;
72205;SDS011;60111;48.286;7.812;2024-01-16T00:13:15;23.22;;;11.35;;
72205;SDS011;60111;48.286;7.812;2024-01-16T00:15:52;20.92;;;11.80;;
72205;SDS011;60111;48.286;7.812;2024-01-16T00:18:25;22.10;;;11.43;;
72205;SDS011;60111;48.286;7.812;2024-01-16T00:21:04;19.77;;;10.55;;
72205;SDS011;60111;48.286;7.812;2024-01-16T00:23:34;21.20;;;11.63;;
72205;SDS011;60111;48.286;7.812;2024-01-16T00:26:06;17.70;;;10.93;;
72205;SDS011;60111;48.286;7.812;2024-01-16T00:28:43;21.55;;;11.50;;
72205;SDS011;60111;48.286;7.812;2024-01-16T00:33:49;19.60;;;10.90;;
72205;SDS011;60111;48.286;7.812;2024-01-16T00:36:22;23.50;;;11.65;;
72205;SDS011;60111;48.286;7.812;2024-01-16T00:38:55;17.65;;;10.58;;
72205;SDS011;60111;48.286;7.812;2024-01-16T00:41:28;18.07;;;10.70;;
72205;SDS011;60111;48.286;7.812;2024-01-16T00:44:00;23.02;;;11.38;;
72205;SDS011;60111;48.286;7.812;2024-01-16T00:46:35;22.55;;;11.00;;
72205;SDS011;60111;48.286;7.812;2024-01-16T00:49:08;19.35;;;10.98;;
72205;SDS011;60111;48.286;7.812;2024-01-16T00:51:40;20.95;;;10.98;;
72205;SDS011;60111;48.286;7.812;2024-01-16T00:54:13;20.05;;;10.65;;
72205;SDS011;60111;48.286;7.812;2024-01-16T00:56:45;19.30;;;10.65;;
72205;SDS011;60111;48.286;7.812;2024-01-16T00:59:18;18.23;;;10.38;;
72205;SDS011;60111;48.286;7.812;2024-01-16T01:01:51;19.62;;;10.65;;
72205;SDS011;60111;48.286;7.812;2024-01-16T01:04:24;19.50;;;10.88;;
72205;SDS011;60111;48.286;7.812;2024-01-16T01:06:56;20.77;;;11.10;;
72205;SDS011;60111;48.286;7.812;2024-01-16T01:09:29;21.02;;;10.75;;
72205;SDS011;60111;48.286;7.812;2024-01-16T01:12:03;20.03;;;10.87;;
72205;SDS011;60111;48.286;7.812;2024-01-16T01:14:39;20.20;;;10.30;;
72205;SDS011;60111;48.286;7.812;2024-01-16T01:17:12;18.23;;;10.30;;
72205;SDS011;60111;48.286;7.812;2024-01-16T01:19:46;22.45;;;11.10;;
72205;SDS011;60111;48.286;7.812;2024-01-16T01:22:18;19.43;;;10.77;;
72205;SDS011;60111;48.286;7.812;2024-01-16T01:24:51;18.57;;;10.47;;
72205;SDS011;60111;48.286;7.812;2024-01-16T01:27:27;16.90;;;9.67;;
72205;SDS011;60111;48.286;7.812;2024-01-16T01:29:59;17.60;;;10.38;;
72205;SDS011;60111;48.286;7.812;2024-01-16T01:32:32;18.32;;;10.30;;
72205;SDS011;60111;48.286;7.812;2024-01-16T01:35:05;19.17;;;10.53;;
72205;SDS011;60111;48.286;7.812;2024-01-16T01:37:39;19.10;;;10.20;;
72205;SDS011;60111;48.286;7.812;2024-01-16T01:40:12;19.87;;;10.60;;
72205;SDS011;60111;48.286;7.812;2024-01-16T01:42:47;16.70;;;9.85;;
72205;SDS011;60111;48.286;7.812;2024-01-16T01:45:23;19.53;;;10.67;;
72205;SDS011;60111;48.286;7.812;2024-01-16T01:47:55;18.70;;;9.33;;
72205;SDS011;60111;48.286;7.812;2024-01-16T01:50:30;20.68;;;10.55;;
72205;SDS011;60111;48.286;7.812;2024-01-16T01:53:02;18.70;;;10.38;;
72205;SDS011;60111;48.286;7.812;2024-01-16T01:55:37;21.27;;;10.30;;
72205;SDS011;60111;48.286;7.812;2024-01-16T01:58:10;17.50;;;10.23;;
72205;SDS011;60111;48.286;7.812;2024-01-16T02:00:43;22.00;;;11.68;;
72205;SDS011;60111;48.286;7.812;2024-01-16T02:03:20;22.13;;;10.80;;
72205;SDS011;60111;48.286;7.812;2024-01-16T02:05:58;20.40;;;10.40;;
72205;SDS011;60111;48.286;7.812;2024-01-16T02:08:33;20.82;;;11.05;;
72205;SDS011;60111;48.286;7.812;2024-01-16T02:11:07;20.15;;;10.58;;
72205;SDS011;60111;48.286;7.812;2024-01-16T02:13:44;16.57;;;9.53;;
72205;SDS011;60111;48.286;7.812;2024-01-16T02:16:20;20.60;;;11.08;;
72205;SDS011;60111;48.286;7.812;2024-01-16T02:18:55;21.73;;;10.80;;
72205;SDS011;60111;48.286;7.812;2024-01-16T02:21:28;18.70;;;10.63;;
72205;SDS011;60111;48.286;7.812;2024-01-16T02:24:10;18.65;;;9.88;;
72205;SDS011;60111;48.286;7.812;2024-01-16T02:26:45;13.93;;;8.75;;
72205;SDS011;60111;48.286;7.812;2024-01-16T02:29:18;17.60;;;9.63;;
72205;SDS011;60111;48.286;7.812;2024-01-16T02:31:51;17.95;;;9.38;;
72205;SDS011;60111;48.286;7.812;2024-01-16T02:34:24;15.63;;;9.13;;
72205;SDS011;60111;48.286;7.812;2024-01-16T02:36:58;17.77;;;9.30;;
72205;SDS011;60111;48.286;7.812;2024-01-16T02:39:31;16.60;;;9.10;;
72205;SDS011;60111;48.286;7.812;2024-01-16T02:42:04;15.90;;;9.15;;
72205;SDS011;60111;48.286;7.812;2024-01-16T02:44:37;15.60;;;8.10;;
72205;SDS011;60111;48.286;7.812;2024-01-16T02:47:12;17.52;;;8.63;;
72205;SDS011;60111;48.286;7.812;2024-01-16T02:49:44;15.88;;;8.45;;
72205;SDS011;60111;48.286;7.812;2024-01-16T02:52:17;16.73;;;7.95;;
72205;SDS011;60111;48.286;7.812;2024-01-16T02:54:50;16.67;;;7.90;;
72205;SDS011;60111;48.286;7.812;2024-01-16T02:59:56;14.05;;;7.37;;
72205;SDS011;60111;48.286;7.812;2024-01-16T03:02:30;14.73;;;7.40;;
72205;SDS011;60111;48.286;7.812;2024-01-16T03:07:36;12.80;;;6.92;;
72205;SDS011;60111;48.286;7.812;2024-01-16T03:10:10;11.10;;;6.72;;
72205;SDS011;60111;48.286;7.812;2024-01-16T03:12:44;14.33;;;6.92;;
72205;SDS011;60111;48.286;7.812;2024-01-16T03:15:22;12.90;;;6.80;;
72205;SDS011;60111;48.286;7.812;2024-01-16T03:17:51;12.78;;;6.80;;
72205;SDS011;60111;48.286;7.812;2024-01-16T03:20:23;14.50;;;7.15;;
72205;SDS011;60111;48.286;7.812;2024-01-16T03:22:59;16.95;;;8.18;;
72205;SDS011;60111;48.286;7.812;2024-01-16T03:25:32;14.38;;;7.75;;
72205;SDS011;60111;48.286;7.812;2024-01-16T03:28:06;13.80;;;7.33;;
72205;SDS011;60111;48.286;7.812;2024-01-16T03:30:39;12.88;;;6.70;;
72205;SDS011;60111;48.286;7.812;2024-01-16T03:33:14;14.05;;;7.53;;
72205;SDS011;60111;48.286;7.812;2024-01-16T03:35:46;13.22;;;7.00;;
72205;SDS011;60111;48.286;7.812;2024-01-16T03:38:19;11.65;;;6.50;;
72205;SDS011;60111;48.286;7.812;2024-01-16T03:40:53;16.07;;;7.55;;
72205;SDS011;60111;48.286;7.812;2024-01-16T03:43:26;12.67;;;7.27;;
72205;SDS011;60111;48.286;7.812;2024-01-16T03:45:58;11.28;;;7.00;;
72205;SDS011;60111;48.286;7.812;2024-01-16T03:48:32;10.43;;;6.33;;
72205;SDS011;60111;48.286;7.812;2024-01-16T03:51:04;14.00;;;6.22;;
72205;SDS011;60111;48.286;7.812;2024-01-16T03:53:39;12.15;;;6.37;;
72205;SDS011;60111;48.286;7.812;2024-01-16T03:56:11;10.98;;;6.70;;
72205;SDS011;60111;48.286;7.812;2024-01-16T03:58:46;8.97;;;5.53;;
72205;SDS011;60111;48.286;7.812;2024-01-16T04:01:32;11.68;;;6.12;;
72205;SDS011;60111;48.286;7.812;2024-01-16T04:04:10;11.95;;;6.28;;
72205;SDS011;60111;48.286;7.812;2024-01-16T04:06:48;10.20;;;5.77;;
72205;SDS011;60111;48.286;7.812;2024-01-16T04:09:21;10.10;;;5.67;;
72205;SDS011;60111;48.286;7.812;2024-01-16T04:11:53;11.43;;;6.30;;
72205;SDS011;60111;48.286;7.812;2024-01-16T04:14:26;11.15;;;5.67;;
72205;SDS011;60111;48.286;7.812;2024-01-16T04:19:32;13.20;;;6.95;;
72205;SDS011;60111;48.286;7.812;2024-01-16T04:22:10;11.28;;;6.70;;
72205;SDS011;60111;48.286;7.812;2024-01-16T04:27:11;8.73;;;5.85;;
72205;SDS011;60111;48.286;7.812;2024-01-16T04:29:44;12.47;;;6.42;;
72205;SDS011;60111;48.286;7.812;2024-01-16T04:32:17;23.12;;;9.15;;
72205;SDS011;60111;48.286;7.812;2024-01-16T04:34:49;15.78;;;7.37;;
72205;SDS011;60111;48.286;7.812;2024-01-16T04:37:23;15.23;;;6.42;;
72205;SDS011;60111;48.286;7.812;2024-01-16T04:39:57;12.93;;;6.30;;
72205;SDS011;60111;48.286;7.812;2024-01-16T04:42:32;11.95;;;6.67;;
72205;SDS011;60111;48.286;7.812;2024-01-16T04:45:05;12.10;;;6.00;;
72205;SDS011;60111;48.286;7.812;2024-01-16T04:47:41;12.78;;;5.55;;
72205;SDS011;60111;48.286;7.812;2024-01-16T04:50:14;11.65;;;6.28;;
72205;SDS011;60111;48.286;7.812;2024-01-16T04:52:46;15.65;;;6.25;;
72205;SDS011;60111;48.286;7.812;2024-01-16T04:55:19;10.60;;;6.20;;
72205;SDS011;60111;48.286;7.812;2024-01-16T04:57:52;14.68;;;6.62;;
72205;SDS011;60111;48.286;7.812;2024-01-16T05:00:30;10.68;;;6.05;;
72205;SDS011;60111;48.286;7.812;2024-01-16T05:03:06;9.43;;;5.93;;
72205;SDS011;60111;48.286;7.812;2024-01-16T05:05:39;12.18;;;6.92;;
72205;SDS011;60111;48.286;7.812;2024-01-16T05:08:11;12.33;;;7.58;;
72205;SDS011;60111;48.286;7.812;2024-01-16T05:10:44;13.68;;;6.97;;
72205;SDS011;60111;48.286;7.812;2024-01-16T05:13:16;13.62;;;7.92;;
72205;SDS011;60111;48.286;7.812;2024-01-16T05:15:52;26.40;;;13.95;;
72205;SDS011;60111;48.286;7.812;2024-01-16T05:18:25;25.88;;;13.83;;
72205;SDS011;60111;48.286;7.812;2024-01-16T05:21:00;22.27;;;12.13;;
72205;SDS011;60111;48.286;7.812;2024-01-16T05:23:33;17.23;;;9.83;;
72205;SDS011;60111;48.286;7.812;2024-01-16T05:26:05;16.85;;;9.23;;
72205;SDS011;60111;48.286;7.812;2024-01-16T05:28:40;15.83;;;8.30;;
72205;SDS011;60111;48.286;7.812;2024-01-16T05:31:12;15.68;;;7.15;;
72205;SDS011;60111;48.286;7.812;2024-01-16T05:33:48;14.25;;;8.08;;
72205;SDS011;60111;48.286;7.812;2024-01-16T05:36:26;15.35;;;7.08;;
72205;SDS011;60111;48.286;7.812;2024-01-16T05:38:55;11.43;;;6.97;;
72205;SDS011;60111;48.286;7.812;2024-01-16T05:41:37;14.35;;;7.70;;
72205;SDS011;60111;48.286;7.812;2024-01-16T05:44:05;11.28;;;6.50;;
72205;SDS011;60111;48.286;7.812;2024-01-16T05:46:38;13.53;;;7.40;;
72205;SDS011;60111;48.286;7.812;2024-01-16T05:49:11;14.03;;;8.03;;
72205;SDS011;60111;48.286;7.812;2024-01-16T05:51:43;17.55;;;9.03;;
72205;SDS011;60111;48.286;7.812;2024-01-16T05:54:17;13.43;;;8.33;;
72205;SDS011;60111;48.286;7.812;2024-01-16T05:56:54;14.87;;;8.38;;
72205;SDS011;60111;48.286;7.812;2024-01-16T05:59:26;13.77;;;8.37;;
72205;SDS011;60111;48.286;7.812;2024-01-16T06:01:59;18.73;;;8.70;;
72205;SDS011;60111;48.286;7.812;2024-01-16T06:04:32;14.98;;;8.78;;
72205;SDS011;60111;48.286;7.812;2024-01-16T06:07:04;17.50;;;8.93;;
72205;SDS011;60111;48.286;7.812;2024-01-16T06:09:38;16.42;;;9.03;;
72205;SDS011;60111;48.286;7.812;2024-01-16T06:12:11;15.17;;;9.27;;
72205;SDS011;60111;48.286;7.812;2024-01-16T06:14:44;15.60;;;9.18;;
72205;SDS011;60111;48.286;7.812;2024-01-16T06:17:16;20.55;;;9.35;;
72205;SDS011;60111;48.286;7.812;2024-01-16T06:19:49;28.40;;;16.00;;
72205;SDS011;60111;48.286;7.812;2024-01-16T06:22:22;23.38;;;14.78;;
72205;SDS011;60111;48.286;7.812;2024-01-16T06:24:55;19.12;;;10.70;;
72205;SDS011;60111;48.286;7.812;2024-01-16T06:27:28;18.10;;;9.83;;
72205;SDS011;60111;48.286;7.812;2024-01-16T06:30:01;15.72;;;8.95;;
72205;SDS011;60111;48.286;7.812;2024-01-16T06:32:34;17.83;;;10.47;;
72205;SDS011;60111;48.286;7.812;2024-01-16T06:35:07;17.57;;;10.20;;
72205;SDS011;60111;48.286;7.812;2024-01-16T06:37:40;17.50;;;9.80;;
72205;SDS011;60111;48.286;7.812;2024-01-16T06:40:19;15.75;;;9.93;;
72205;SDS011;60111;48.286;7.812;2024-01-16T06:42:52;20.00;;;9.23;;
72205;SDS011;60111;48.286;7.812;2024-01-16T06:45:26;18.37;;;10.13;;
72205;SDS011;60111;48.286;7.812;2024-01-16T06:47:58;23.13;;;11.63;;
72205;SDS011;60111;48.286;7.812;2024-01-16T06:50:32;23.00;;;10.95;;
72205;SDS011;60111;48.286;7.812;2024-01-16T06:53:06;18.95;;;9.95;;
72205;SDS011;60111;48.286;7.812;2024-01-16T06:55:39;20.77;;;11.10;;
72205;SDS011;60111;48.286;7.812;2024-01-16T06:58:12;21.10;;;11.70;;
72205;SDS011;60111;48.286;7.812;2024-01-16T07:00:46;25.10;;;13.98;;
72205;SDS011;60111;48.286;7.812;2024-01-16T07:03:19;25.67;;;14.67;;
72205;SDS011;60111;48.286;7.812;2024-01-16T07:05:52;29.77;;;15.85;;
72205;SDS011;60111;48.286;7.812;2024-01-16T07:08:25;28.70;;;15.34;;
72205;SDS011;60111;48.286;7.812;2024-01-16T07:10:58;31.10;;;14.67;;
72205;SDS011;60111;48.286;7.812;2024-01-16T07:13:33;29.92;;;16.75;;
72205;SDS011;60111;48.286;7.812;2024-01-16T07:16:09;30.50;;;16.80;;
72205;SDS011;60111;48.286;7.812;2024-01-16T07:18:43;32.83;;;18.98;;
72205;SDS011;60111;48.286;7.812;2024-01-16T07:21:19;32.78;;;17.87;;
72205;SDS011;60111;48.286;7.812;2024-01-16T07:23:52;29.77;;;16.67;;
72205;SDS011;60111;48.286;7.812;2024-01-16T07:26:25;27.48;;;15.35;;
72205;SDS011;60111;48.286;7.812;2024-01-16T07:29:00;27.58;;;13.72;;
72205;SDS011;60111;48.286;7.812;2024-01-16T07:31:33;25.27;;;13.65;;
72205;SDS011;60111;48.286;7.812;2024-01-16T07:34:06;26.50;;;14.10;;
72205;SDS011;60111;48.286;7.812;2024-01-16T07:36:39;21.37;;;11.28;;
72205;SDS011;60111;48.286;7.812;2024-01-16T07:39:13;16.53;;;8.80;;
72205;SDS011;60111;48.286;7.812;2024-01-16T07:41:46;20.20;;;11.85;;
72205;SDS011;60111;48.286;7.812;2024-01-16T07:44:19;21.10;;;11.40;;
72205;SDS011;60111;48.286;7.812;2024-01-16T07:46:53;22.87;;;12.98;;
72205;SDS011;60111;48.286;7.812;2024-01-16T07:49:26;23.10;;;11.95;;
72205;SDS011;60111;48.286;7.812;2024-01-16T07:52:01;24.87;;;12.95;;
72205;SDS011;60111;48.286;7.812;2024-01-16T07:54:34;25.27;;;12.67;;
72205;SDS011;60111;48.286;7.812;2024-01-16T07:57:07;21.70;;;11.97;;
72205;SDS011;60111;48.286;7.812;2024-01-16T07:59:39;24.20;;;12.03;;
72205;SDS011;60111;48.286;7.812;2024-01-16T08:02:14;22.00;;;12.70;;
72205;SDS011;60111;48.286;7.812;2024-01-16T08:04:49;26.75;;;16.12;;
72205;SDS011;60111;48.286;7.812;2024-01-16T08:07:23;23.65;;;14.47;;
72205;SDS011;60111;48.286;7.812;2024-01-16T08:12:28;23.45;;;13.60;;
72205;SDS011;60111;48.286;7.812;2024-01-16T08:15:01;26.80;;;13.28;;
72205;SDS011;60111;48.286;7.812;2024-01-16T08:17:35;28.12;;;14.87;;
72205;SDS011;60111;48.286;7.812;2024-01-16T08:20:10;40.97;;;19.50;;
72205;SDS011;60111;48.286;7.812;2024-01-16T08:22:44;29.70;;;17.60;;
72205;SDS011;60111;48.286;7.812;2024-01-16T08:25:16;29.77;;;17.55;;
72205;SDS011;60111;48.286;7.812;2024-01-16T08:27:49;23.87;;;13.98;;
72205;SDS011;60111;48.286;7.812;2024-01-16T08:30:23;21.13;;;12.60;;
72205;SDS011;60111;48.286;7.812;2024-01-16T08:32:56;16.64;;;10.46;;
72205;SDS011;60111;48.286;7.812;2024-01-16T08:35:28;16.32;;;10.63;;
72205;SDS011;60111;48.286;7.812;2024-01-16T08:38:01;19.62;;;11.38;;
72205;SDS011;60111;48.286;7.812;2024-01-16T08:40:35;21.60;;;11.63;;
72205;SDS011;60111;48.286;7.812;2024-01-16T08:43:07;22.98;;;13.88;;
72205;SDS011;60111;48.286;7.812;2024-01-16T08:45:40;20.17;;;11.12;;
72205;SDS011;60111;48.286;7.812;2024-01-16T08:48:13;20.82;;;11.88;;
72205;SDS011;60111;48.286;7.812;2024-01-16T08:50:47;22.85;;;13.30;;
72205;SDS011;60111;48.286;7.812;2024-01-16T08:53:20;24.32;;;12.33;;
72205;SDS011;60111;48.286;7.812;2024-01-16T08:55:56;23.75;;;13.35;;
72205;SDS011;60111;48.286;7.812;2024-01-16T08:58:29;22.45;;;12.43;;
72205;SDS011;60111;48.286;7.812;2024-01-16T09:01:03;24.35;;;13.98;;
72205;SDS011;60111;48.286;7.812;2024-01-16T09:03:38;24.67;;;13.63;;
72205;SDS011;60111;48.286;7.812;2024-01-16T09:06:11;26.12;;;14.07;;
72205;SDS011;60111;48.286;7.812;2024-01-16T09:08:43;23.67;;;13.48;;
72205;SDS011;60111;48.286;7.812;2024-01-16T09:11:16;22.55;;;13.55;;
72205;SDS011;60111;48.286;7.812;2024-01-16T09:13:49;23.15;;;11.75;;
72205;SDS011;60111;48.286;7.812;2024-01-16T09:16:23;19.50;;;11.30;;
72205;SDS011;60111;48.286;7.812;2024-01-16T09:18:56;17.65;;;10.90;;
72205;SDS011;60111;48.286;7.812;2024-01-16T09:21:28;16.35;;;10.58;;
72205;SDS011;60111;48.286;7.812;2024-01-16T09:24:01;19.30;;;11.53;;
72205;SDS011;60111;48.286;7.812;2024-01-16T09:26:35;22.93;;;12.33;;
72205;SDS011;60111;48.286;7.812;2024-01-16T09:29:09;22.48;;;11.53;;
72205;SDS011;60111;48.286;7.812;2024-01-16T09:31:43;20.35;;;11.38;;
72205;SDS011;60111;48.286;7.812;2024-01-16T09:34:17;18.97;;;10.03;;
72205;SDS011;60111;48.286;7.812;2024-01-16T09:36:50;16.67;;;9.70;;
72205;SDS011;60111;48.286;7.812;2024-01-16T09:39:22;16.10;;;9.95;;
72205;SDS011;60111;48.286;7.812;2024-01-16T09:41:57;17.67;;;9.10;;
72205;SDS011;60111;48.286;7.812;2024-01-16T09:44:32;12.83;;;7.73;;
72205;SDS011;60111;48.286;7.812;2024-01-16T09:47:06;13.97;;;8.27;;
72205;SDS011;60111;48.286;7.812;2024-01-16T09:49:40;17.60;;;9.78;;
72205;SDS011;60111;48.286;7.812;2024-01-16T09:54:46;18.05;;;9.13;;
72205;SDS011;60111;48.286;7.812;2024-01-16T09:57:19;15.20;;;9.20;;
72205;SDS011;60111;48.286;7.812;2024-01-16T09:59:53;19.32;;;10.75;;
72205;SDS011;60111;48.286;7.812;2024-01-16T10:02:28;16.75;;;10.00;;
72205;SDS011;60111;48.286;7.812;2024-01-16T10:05:01;18.77;;;10.20;;
72205;SDS011;60111;48.286;7.812;2024-01-16T10:07:34;19.15;;;11.40;;
72205;SDS011;60111;48.286;7.812;2024-01-16T10:10:11;19.40;;;11.38;;
72205;SDS011;60111;48.286;7.812;2024-01-16T10:12:44;15.70;;;8.93;;
72205;SDS011;60111;48.286;7.812;2024-01-16T10:15:19;30.02;;;15.70;;
72205;SDS011;60111;48.286;7.812;2024-01-16T10:17:53;16.52;;;9.98;;
72205;SDS011;60111;48.286;7.812;2024-01-16T10:20:33;14.00;;;7.67;;
72205;SDS011;60111;48.286;7.812;2024-01-16T10:23:07;11.27;;;6.97;;
72205;SDS011;60111;48.286;7.812;2024-01-16T10:25:39;13.18;;;7.37;;
72205;SDS011;60111;48.286;7.812;2024-01-16T10:28:12;15.10;;;7.65;;
72205;SDS011;60111;48.286;7.812;2024-01-16T10:30:48;14.63;;;7.05;;
72205;SDS011;60111;48.286;7.812;2024-01-16T10:33:24;17.48;;;9.00;;
72205;SDS011;60111;48.286;7.812;2024-01-16T10:36:08;12.25;;;6.92;;
72205;SDS011;60111;48.286;7.812;2024-01-16T10:38:45;10.78;;;6.35;;
72205;SDS011;60111;48.286;7.812;2024-01-16T10:41:18;10.08;;;6.03;;
72205;SDS011;60111;48.286;7.812;2024-01-16T10:44:05;9.60;;;5.65;;
72205;SDS011;60111;48.286;7.812;2024-01-16T10:46:38;8.88;;;5.65;;
72205;SDS011;60111;48.286;7.812;2024-01-16T10:49:11;9.55;;;6.08;;
72205;SDS011;60111;48.286;7.812;2024-01-16T10:51:44;9.23;;;5.37;;
72205;SDS011;60111;48.286;7.812;2024-01-16T10:54:16;9.60;;;5.30;;
72205;SDS011;60111;48.286;7.812;2024-01-16T10:56:49;9.93;;;5.97;;
72205;SDS011;60111;48.286;7.812;2024-01-16T10:59:30;13.75;;;6.37;;
72205;SDS011;60111;48.286;7.812;2024-01-16T11:01:57;10.75;;;6.15;;
72205;SDS011;60111;48.286;7.812;2024-01-16T11:04:32;13.68;;;6.35;;
72205;SDS011;60111;48.286;7.812;2024-01-16T11:07:05;13.55;;;7.45;;
72205;SDS011;60111;48.286;7.812;2024-01-16T11:09:38;12.45;;;7.95;;
72205;SDS011;60111;48.286;7.812;2024-01-16T11:12:13;11.60;;;6.80;;
72205;SDS011;60111;48.286;7.812;2024-01-16T11:17:22;11.70;;;6.30;;
72205;SDS011;60111;48.286;7.812;2024-01-16T11:19:55;11.57;;;6.93;;
72205;SDS011;60111;48.286;7.812;2024-01-16T11:22:32;16.30;;;9.50;;
72205;SDS011;60111;48.286;7.812;2024-01-16T11:25:16;12.87;;;7.47;;
72205;SDS011;60111;48.286;7.812;2024-01-16T11:27:49;13.00;;;7.35;;
72205;SDS011;60111;48.286;7.812;2024-01-16T11:30:29;14.80;;;7.17;;
72205;SDS011;60111;48.286;7.812;2024-01-16T11:33:03;11.30;;;7.25;;
72205;SDS011;60111;48.286;7.812;2024-01-16T11:35:36;12.53;;;5.70;;
72205;SDS011;60111;48.286;7.812;2024-01-16T11:38:14;13.13;;;7.72;;
72205;SDS011;60111;48.286;7.812;2024-01-16T11:40:48;13.50;;;7.58;;
72205;SDS011;60111;48.286;7.812;2024-01-16T11:46:09;12.68;;;6.90;;
72205;SDS011;60111;48.286;7.812;2024-01-16T11:48:41;13.88;;;8.08;;
72205;SDS011;60111;48.286;7.812;2024-01-16T11:51:23;12.28;;;7.40;;
72205;SDS011;60111;48.286;7.812;2024-01-16T11:53:57;13.37;;;6.83;;
72205;SDS011;60111;48.286;7.812;2024-01-16T12:02:16;12.85;;;7.17;;
72205;SDS011;60111;48.286;7.812;2024-01-16T12:04:53;16.55;;;8.70;;
72205;SDS011;60111;48.286;7.812;2024-01-16T12:07:27;13.75;;;7.00;;
72205;SDS011;60111;48.286;7.812;2024-01-16T12:10:00;15.75;;;6.70;;
72205;SDS011;60111;48.286;7.812;2024-01-16T12:12:33;14.40;;;7.00;;
72205;SDS011;60111;48.286;7.812;2024-01-16T12:15:05;12.80;;;6.87;;
72205;SDS011;60111;48.286;7.812;2024-01-16T12:17:45;11.15;;;6.92;;
72205;SDS011;60111;48.286;7.812;2024-01-16T12:20:29;11.03;;;6.97;;
72205;SDS011;60111;48.286;7.812;2024-01-16T12:23:03;12.68;;;7.03;;
72205;SDS011;60111;48.286;7.812;2024-01-16T12:25:38;11.13;;;6.80;;
72205;SDS011;60111;48.286;7.812;2024-01-16T12:28:10;11.10;;;7.10;;
72205;SDS011;60111;48.286;7.812;2024-01-16T12:30:49;11.20;;;6.85;;
72205;SDS011;60111;48.286;7.812;2024-01-16T12:33:22;14.33;;;7.22;;
72205;SDS011;60111;48.286;7.812;2024-01-16T12:36:01;16.82;;;7.97;;
72205;SDS011;60111;48.286;7.812;2024-01-16T12:38:35;14.43;;;7.62;;
72205;SDS011;60111;48.286;7.812;2024-01-16T12:41:08;15.43;;;7.22;;
72205;SDS011;60111;48.286;7.812;2024-01-16T12:43:43;13.62;;;7.75;;
72205;SDS011;60111;48.286;7.812;2024-01-16T12:46:15;15.45;;;7.67;;
72205;SDS011;60111;48.286;7.812;2024-01-16T12:48:50;11.93;;;7.90;;
72205;SDS011;60111;48.286;7.812;2024-01-16T12:51:24;14.15;;;7.53;;
72205;SDS011;60111;48.286;7.812;2024-01-16T12:54:17;14.03;;;7.33;;
72205;SDS011;60111;48.286;7.812;2024-01-16T12:56:48;12.35;;;7.55;;
72205;SDS011;60111;48.286;7.812;2024-01-16T12:59:22;12.03;;;7.15;;
72205;SDS011;60111;48.286;7.812;2024-01-16T13:01:59;13.30;;;7.42;;
72205;SDS011;60111;48.286;7.812;2024-01-16T13:04:32;11.08;;;7.20;;
72205;SDS011;60111;48.286;7.812;2024-01-16T13:07:05;12.70;;;7.65;;
72205;SDS011;60111;48.286;7.812;2024-01-16T13:09:37;11.55;;;6.70;;
72205;SDS011;60111;48.286;7.812;2024-01-16T13:12:10;14.25;;;7.90;;
72205;SDS011;60111;48.286;7.812;2024-01-16T13:14:45;12.95;;;7.35;;
72205;SDS011;60111;48.286;7.812;2024-01-16T13:17:18;12.82;;;6.75;;
72205;SDS011;60111;48.286;7.812;2024-01-16T13:19:52;13.53;;;7.07;;
72205;SDS011;60111;48.286;7.812;2024-01-16T13:22:24;11.50;;;7.03;;
72205;SDS011;60111;48.286;7.812;2024-01-16T13:24:57;12.18;;;7.08;;
72205;SDS011;60111;48.286;7.812;2024-01-16T13:27:30;12.18;;;7.40;;
72205;SDS011;60111;48.286;7.812;2024-01-16T13:30:03;13.17;;;6.40;;
72205;SDS011;60111;48.286;7.812;2024-01-16T13:32:37;12.20;;;6.80;;
72205;SDS011;60111;48.286;7.812;2024-01-16T13:35:09;16.15;;;7.00;;
72205;SDS011;60111;48.286;7.812;2024-01-16T13:37:43;10.13;;;6.22;;
72205;SDS011;60111;48.286;7.812;2024-01-16T13:40:16;10.43;;;6.65;;
72205;SDS011;60111;48.286;7.812;2024-01-16T13:42:49;11.90;;;6.97;;
72205;SDS011;60111;48.286;7.812;2024-01-16T13:45:22;11.30;;;6.40;;
72205;SDS011;60111;48.286;7.812;2024-01-16T13:47:54;11.60;;;6.40;;
72205;SDS011;60111;48.286;7.812;2024-01-16T13:50:27;10.23;;;6.12;;
72205;SDS011;60111;48.286;7.812;2024-01-16T13:53:01;11.00;;;6.50;;
72205;SDS011;60111;48.286;7.812;2024-01-16T13:55:34;10.90;;;6.00;;
72205;SDS011;60111;48.286;7.812;2024-01-16T13:58:08;9.18;;;6.05;;
72205;SDS011;60111;48.286;7.812;2024-01-16T14:00:41;9.83;;;6.00;;
72205;SDS011;60111;48.286;7.812;2024-01-16T14:03:14;11.40;;;5.97;;
72205;SDS011;60111;48.286;7.812;2024-01-16T14:05:47;9.47;;;5.60;;
72205;SDS011;60111;48.286;7.812;2024-01-16T14:08:20;10.27;;;5.90;;
72205;SDS011;60111;48.286;7.812;2024-01-16T14:10:53;9.60;;;5.78;;
72205;SDS011;60111;48.286;7.812;2024-01-16T14:13:27;10.78;;;5.97;;
72205;SDS011;60111;48.286;7.812;2024-01-16T14:16:00;9.80;;;6.03;;
72205;SDS011;60111;48.286;7.812;2024-01-16T14:18:34;12.37;;;6.13;;
72205;SDS011;60111;48.286;7.812;2024-01-16T14:21:06;10.27;;;6.03;;
72205;SDS011;60111;48.286;7.812;2024-01-16T14:23:39;9.35;;;5.87;;
72205;SDS011;60111;48.286;7.812;2024-01-16T14:26:11;8.73;;;5.50;;
72205;SDS011;60111;48.286;7.812;2024-01-16T14:28:44;8.85;;;5.17;;
72205;SDS011;60111;48.286;7.812;2024-01-16T14:31:16;7.53;;;5.50;;
72205;SDS011;60111;48.286;7.812;2024-01-16T14:33:49;10.48;;;5.42;;
72205;SDS011;60111;48.286;7.812;2024-01-16T14:36:22;9.73;;;5.33;;
72205;SDS011;60111;48.286;7.812;2024-01-16T14:38:55;9.45;;;5.05;;
72205;SDS011;60111;48.286;7.812;2024-01-16T14:41:27;9.20;;;5.10;;
72205;SDS011;60111;48.286;7.812;2024-01-16T14:44:00;11.38;;;4.95;;
72205;SDS011;60111;48.286;7.812;2024-01-16T14:46:32;9.08;;;4.85;;
72205;SDS011;60111;48.286;7.812;2024-01-16T14:49:05;7.87;;;4.90;;
72205;SDS011;60111;48.286;7.812;2024-01-16T14:51:38;9.17;;;4.63;;
72205;SDS011;60111;48.286;7.812;2024-01-16T14:54:11;7.30;;;5.08;;
72205;SDS011;60111;48.286;7.812;2024-01-16T14:56:44;9.80;;;4.92;;
72205;SDS011;60111;48.286;7.812;2024-01-16T14:59:16;7.40;;;4.70;;
72205;SDS011;60111;48.286;7.812;2024-01-16T15:01:49;8.28;;;4.67;;
72205;SDS011;60111;48.286;7.812;2024-01-16T15:04:23;9.50;;;5.00;;
72205;SDS011;60111;48.286;7.812;2024-01-16T15:06:56;10.88;;;4.90;;
72205;SDS011;60111;48.286;7.812;2024-01-16T15:09:29;8.35;;;5.15;;
72205;SDS011;60111;48.286;7.812;2024-01-16T15:12:04;7.72;;;5.35;;
72205;SDS011;60111;48.286;7.812;2024-01-16T15:14:37;7.07;;;4.80;;
72205;SDS011;60111;48.286;7.812;2024-01-16T15:17:09;9.13;;;5.10;;
72205;SDS011;60111;48.286;7.812;2024-01-16T15:19:42;6.70;;;5.08;;
72205;SDS011;60111;48.286;7.812;2024-01-16T15:22:14;10.90;;;5.15;;
72205;SDS011;60111;48.286;7.812;2024-01-16T15:24:47;8.10;;;4.90;;
72205;SDS011;60111;48.286;7.812;2024-01-16T15:27:20;9.40;;;5.55;;
72205;SDS011;60111;48.286;7.812;2024-01-16T15:29:52;8.93;;;5.13;;
72205;SDS011;60111;48.286;7.812;2024-01-16T15:34:58;10.27;;;5.43;;
72205;SDS011;60111;48.286;7.812;2024-01-16T15:37:31;9.45;;;5.22;;
72205;SDS011;60111;48.286;7.812;2024-01-16T15:40:04;14.45;;;6.20;;